sensor_id;sensor_type;location;lat;lon;timestamp;temperature;humidity
54168;DHT22;40072;50.958;3.592;2022-10-10T00:01:11;9.10;99.90
54168;DHT22;40072;50.958;3.592;2022-10-10T00:03:37;9.10;99.90
54168;DHT22;40072;50.958;3.592;2022-10-10T00:06:04;9.10;99.90
54168;DHT22;40072;50.958;3.592;2022-10-10T00:08:30;9.00;99.90
54168;DHT22;40072;50.958;3.592;2022-10-10T00:10:55;9.10;99.90
54168;DHT22;40072;50.958;3.592;2022-10-10T00:13:21;9.00;99.90
54168;DHT22;40072;50.958;3.592;2022-10-10T00:15:47;9.00;99.90
54168;DHT22;40072;50.958;3.592;2022-10-10T00:18:12;8.90;99.90
54168;DHT22;40072;50.958;3.592;2022-10-10T00:20:38;9.00;99.90
54168;DHT22;40072;50.958;3.592;2022-10-10T00:23:04;9.00;99.90
54168;DHT22;40072;50.958;3.592;2022-10-10T00:25:29;9.00;99.90
54168;DHT22;40072;50.958;3.592;2022-10-10T00:27:55;9.10;99.90
54168;DHT22;40072;50.958;3.592;2022-10-10T00:30:20;9.10;99.90
54168;DHT22;40072;50.958;3.592;2022-10-10T00:32:46;9.10;99.90
54168;DHT22;40072;50.958;3.592;2022-10-10T00:35:12;9.20;99.90
54168;DHT22;40072;50.958;3.592;2022-10-10T00:37:38;9.20;99.90
54168;DHT22;40072;50.958;3.592;2022-10-10T00:40:05;9.20;99.90
54168;DHT22;40072;50.958;3.592;2022-10-10T00:42:31;9.30;99.90
54168;DHT22;40072;50.958;3.592;2022-10-10T00:47:44;9.30;99.90
54168;DHT22;40072;50.958;3.592;2022-10-10T00:50:10;9.30;99.90
54168;DHT22;40072;50.958;3.592;2022-10-10T00:52:36;9.30;99.90
54168;DHT22;40072;50.958;3.592;2022-10-10T00:55:02;9.30;99.90
54168;DHT22;40072;50.958;3.592;2022-10-10T00:57:28;9.40;99.90
54168;DHT22;40072;50.958;3.592;2022-10-10T00:59:53;9.40;99.90
54168;DHT22;40072;50.958;3.592;2022-10-10T01:02:19;9.40;99.90
54168;DHT22;40072;50.958;3.592;2022-10-10T01:04:45;9.50;99.90
54168;DHT22;40072;50.958;3.592;2022-10-10T01:07:27;9.60;99.90
54168;DHT22;40072;50.958;3.592;2022-10-10T01:09:56;9.50;99.90
54168;DHT22;40072;50.958;3.592;2022-10-10T01:17:34;9.70;99.90
54168;DHT22;40072;50.958;3.592;2022-10-10T01:23:05;9.70;99.90
54168;DHT22;40072;50.958;3.592;2022-10-10T01:31:22;9.70;99.90
54168;DHT22;40072;50.958;3.592;2022-10-10T01:36:47;9.70;99.90
54168;DHT22;40072;50.958;3.592;2022-10-10T01:39:34;9.70;99.90
54168;DHT22;40072;50.958;3.592;2022-10-10T01:42:37;9.70;99.90
54168;DHT22;40072;50.958;3.592;2022-10-10T01:45:05;9.70;99.90
54168;DHT22;40072;50.958;3.592;2022-10-10T01:47:31;9.70;99.90
54168;DHT22;40072;50.958;3.592;2022-10-10T01:50:00;9.70;99.90
54168;DHT22;40072;50.958;3.592;2022-10-10T01:52:29;9.70;99.90
54168;DHT22;40072;50.958;3.592;2022-10-10T01:55:16;9.70;99.90
54168;DHT22;40072;50.958;3.592;2022-10-10T02:00:13;9.70;99.90
54168;DHT22;40072;50.958;3.592;2022-10-10T02:05:55;9.60;99.90
54168;DHT22;40072;50.958;3.592;2022-10-10T02:08:30;9.60;99.90
54168;DHT22;40072;50.958;3.592;2022-10-10T02:11:05;9.60;99.90
54168;DHT22;40072;50.958;3.592;2022-10-10T02:14:04;9.70;99.90
54168;DHT22;40072;50.958;3.592;2022-10-10T02:16:33;9.70;99.90
54168;DHT22;40072;50.958;3.592;2022-10-10T02:19:06;9.70;99.90
54168;DHT22;40072;50.958;3.592;2022-10-10T02:21:36;9.60;99.90
54168;DHT22;40072;50.958;3.592;2022-10-10T02:24:05;9.60;99.90
54168;DHT22;40072;50.958;3.592;2022-10-10T02:26:32;9.60;99.90
54168;DHT22;40072;50.958;3.592;2022-10-10T02:29:04;9.50;99.90
54168;DHT22;40072;50.958;3.592;2022-10-10T02:31:37;9.50;99.90
54168;DHT22;40072;50.958;3.592;2022-10-10T02:34:15;9.50;99.90
54168;DHT22;40072;50.958;3.592;2022-10-10T02:36:46;9.50;99.90
54168;DHT22;40072;50.958;3.592;2022-10-10T02:39:15;9.50;99.90
54168;DHT22;40072;50.958;3.592;2022-10-10T02:41:43;9.40;99.90
54168;DHT22;40072;50.958;3.592;2022-10-10T02:44:11;9.40;99.90
54168;DHT22;40072;50.958;3.592;2022-10-10T02:46:37;9.40;99.90
54168;DHT22;40072;50.958;3.592;2022-10-10T02:49:06;9.30;99.90
54168;DHT22;40072;50.958;3.592;2022-10-10T02:51:33;9.30;99.90
54168;DHT22;40072;50.958;3.592;2022-10-10T02:53:58;9.20;99.90
54168;DHT22;40072;50.958;3.592;2022-10-10T02:56:24;9.20;99.90
54168;DHT22;40072;50.958;3.592;2022-10-10T02:58:50;9.20;99.90
54168;DHT22;40072;50.958;3.592;2022-10-10T03:01:15;9.20;99.90
54168;DHT22;40072;50.958;3.592;2022-10-10T03:03:41;9.20;99.90
54168;DHT22;40072;50.958;3.592;2022-10-10T03:06:07;9.20;99.90
54168;DHT22;40072;50.958;3.592;2022-10-10T03:08:32;9.30;99.90
54168;DHT22;40072;50.958;3.592;2022-10-10T03:11:00;9.10;99.90
54168;DHT22;40072;50.958;3.592;2022-10-10T03:13:26;9.10;99.90
54168;DHT22;40072;50.958;3.592;2022-10-10T03:15:52;8.90;99.90
54168;DHT22;40072;50.958;3.592;2022-10-10T03:18:18;9.00;99.90
54168;DHT22;40072;50.958;3.592;2022-10-10T03:20:51;8.90;99.90
54168;DHT22;40072;50.958;3.592;2022-10-10T03:23:18;9.00;99.90
54168;DHT22;40072;50.958;3.592;2022-10-10T03:25:44;9.00;99.90
54168;DHT22;40072;50.958;3.592;2022-10-10T03:28:10;9.00;99.90
54168;DHT22;40072;50.958;3.592;2022-10-10T03:30:37;9.00;99.90
54168;DHT22;40072;50.958;3.592;2022-10-10T03:33:03;9.10;99.90
54168;DHT22;40072;50.958;3.592;2022-10-10T03:35:29;9.10;99.90
54168;DHT22;40072;50.958;3.592;2022-10-10T03:37:55;8.90;99.90
54168;DHT22;40072;50.958;3.592;2022-10-10T03:40:21;8.90;99.90
54168;DHT22;40072;50.958;3.592;2022-10-10T03:42:47;8.80;99.90
54168;DHT22;40072;50.958;3.592;2022-10-10T03:45:12;8.70;99.90
54168;DHT22;40072;50.958;3.592;2022-10-10T03:47:38;8.70;99.90
54168;DHT22;40072;50.958;3.592;2022-10-10T03:50:04;8.60;99.90
54168;DHT22;40072;50.958;3.592;2022-10-10T03:52:30;8.50;99.90
54168;DHT22;40072;50.958;3.592;2022-10-10T03:54:55;8.50;99.90
54168;DHT22;40072;50.958;3.592;2022-10-10T03:57:21;8.50;99.90
54168;DHT22;40072;50.958;3.592;2022-10-10T03:59:47;8.50;99.90
54168;DHT22;40072;50.958;3.592;2022-10-10T04:02:12;8.40;99.90
54168;DHT22;40072;50.958;3.592;2022-10-10T04:04:38;8.30;99.90
54168;DHT22;40072;50.958;3.592;2022-10-10T04:07:05;8.30;99.90
54168;DHT22;40072;50.958;3.592;2022-10-10T04:09:30;8.30;99.90
54168;DHT22;40072;50.958;3.592;2022-10-10T04:11:56;8.30;99.90
54168;DHT22;40072;50.958;3.592;2022-10-10T04:14:22;8.30;99.90
54168;DHT22;40072;50.958;3.592;2022-10-10T04:16:47;8.40;99.90
54168;DHT22;40072;50.958;3.592;2022-10-10T04:19:13;8.50;99.90
54168;DHT22;40072;50.958;3.592;2022-10-10T04:21:39;8.50;99.90
54168;DHT22;40072;50.958;3.592;2022-10-10T04:24:05;8.50;99.90
54168;DHT22;40072;50.958;3.592;2022-10-10T04:26:31;8.60;99.90
54168;DHT22;40072;50.958;3.592;2022-10-10T04:28:56;8.50;99.90
54168;DHT22;40072;50.958;3.592;2022-10-10T04:31:22;8.30;99.90
54168;DHT22;40072;50.958;3.592;2022-10-10T04:33:48;8.30;99.90
54168;DHT22;40072;50.958;3.592;2022-10-10T04:36:14;8.40;99.90
54168;DHT22;40072;50.958;3.592;2022-10-10T04:38:39;8.50;99.90
54168;DHT22;40072;50.958;3.592;2022-10-10T04:41:05;8.30;99.90
54168;DHT22;40072;50.958;3.592;2022-10-10T04:43:31;8.40;99.90
54168;DHT22;40072;50.958;3.592;2022-10-10T04:45:56;8.40;99.90
54168;DHT22;40072;50.958;3.592;2022-10-10T04:48:25;8.50;99.90
54168;DHT22;40072;50.958;3.592;2022-10-10T04:50:56;8.60;99.90
54168;DHT22;40072;50.958;3.592;2022-10-10T04:53:22;8.60;99.90
54168;DHT22;40072;50.958;3.592;2022-10-10T04:55:48;8.70;99.90
54168;DHT22;40072;50.958;3.592;2022-10-10T04:58:15;8.70;99.90
54168;DHT22;40072;50.958;3.592;2022-10-10T05:00:41;8.70;99.90
54168;DHT22;40072;50.958;3.592;2022-10-10T05:03:07;8.60;99.90
54168;DHT22;40072;50.958;3.592;2022-10-10T05:05:34;8.50;99.90
54168;DHT22;40072;50.958;3.592;2022-10-10T05:07:59;8.60;99.90
54168;DHT22;40072;50.958;3.592;2022-10-10T05:10:25;8.70;99.90
54168;DHT22;40072;50.958;3.592;2022-10-10T05:12:51;8.70;99.90
54168;DHT22;40072;50.958;3.592;2022-10-10T05:15:17;8.70;99.90
54168;DHT22;40072;50.958;3.592;2022-10-10T05:17:43;8.70;99.90
54168;DHT22;40072;50.958;3.592;2022-10-10T05:20:09;8.70;99.90
54168;DHT22;40072;50.958;3.592;2022-10-10T05:22:35;8.60;99.90
54168;DHT22;40072;50.958;3.592;2022-10-10T05:25:01;8.60;99.90
54168;DHT22;40072;50.958;3.592;2022-10-10T05:27:27;8.60;99.90
54168;DHT22;40072;50.958;3.592;2022-10-10T05:29:53;8.60;99.90
54168;DHT22;40072;50.958;3.592;2022-10-10T05:32:20;8.70;99.90
54168;DHT22;40072;50.958;3.592;2022-10-10T05:34:46;8.70;99.90
54168;DHT22;40072;50.958;3.592;2022-10-10T05:37:12;8.60;99.90
54168;DHT22;40072;50.958;3.592;2022-10-10T05:39:38;8.60;99.90
54168;DHT22;40072;50.958;3.592;2022-10-10T05:42:04;8.60;99.90
54168;DHT22;40072;50.958;3.592;2022-10-10T05:44:30;8.50;99.90
54168;DHT22;40072;50.958;3.592;2022-10-10T05:46:56;8.60;99.90
54168;DHT22;40072;50.958;3.592;2022-10-10T05:49:22;8.70;99.90
54168;DHT22;40072;50.958;3.592;2022-10-10T05:51:48;8.80;99.90
54168;DHT22;40072;50.958;3.592;2022-10-10T05:54:13;8.90;99.90
54168;DHT22;40072;50.958;3.592;2022-10-10T05:56:39;9.00;99.90
54168;DHT22;40072;50.958;3.592;2022-10-10T05:59:05;9.10;99.90
54168;DHT22;40072;50.958;3.592;2022-10-10T06:01:31;9.10;99.90
54168;DHT22;40072;50.958;3.592;2022-10-10T06:03:57;9.20;99.90
54168;DHT22;40072;50.958;3.592;2022-10-10T06:06:23;9.10;99.90
54168;DHT22;40072;50.958;3.592;2022-10-10T06:08:49;9.20;99.90
54168;DHT22;40072;50.958;3.592;2022-10-10T06:11:15;9.10;99.90
54168;DHT22;40072;50.958;3.592;2022-10-10T06:13:42;9.20;99.90
54168;DHT22;40072;50.958;3.592;2022-10-10T06:16:08;9.30;99.90
54168;DHT22;40072;50.958;3.592;2022-10-10T06:18:34;9.40;99.90
54168;DHT22;40072;50.958;3.592;2022-10-10T06:21:05;9.40;99.90
54168;DHT22;40072;50.958;3.592;2022-10-10T06:23:31;9.40;99.90
54168;DHT22;40072;50.958;3.592;2022-10-10T06:25:56;9.40;99.90
54168;DHT22;40072;50.958;3.592;2022-10-10T06:28:22;9.40;99.90
54168;DHT22;40072;50.958;3.592;2022-10-10T06:30:48;9.40;99.90
54168;DHT22;40072;50.958;3.592;2022-10-10T06:33:15;9.40;99.90
54168;DHT22;40072;50.958;3.592;2022-10-10T06:35:44;9.50;99.90
54168;DHT22;40072;50.958;3.592;2022-10-10T06:38:12;9.60;99.90
54168;DHT22;40072;50.958;3.592;2022-10-10T06:40:39;9.70;99.90
54168;DHT22;40072;50.958;3.592;2022-10-10T06:43:05;9.90;99.90
54168;DHT22;40072;50.958;3.592;2022-10-10T06:45:40;10.00;99.90
54168;DHT22;40072;50.958;3.592;2022-10-10T06:48:06;10.20;99.90
54168;DHT22;40072;50.958;3.592;2022-10-10T06:50:33;10.00;99.90
54168;DHT22;40072;50.958;3.592;2022-10-10T06:52:59;10.00;99.90
54168;DHT22;40072;50.958;3.592;2022-10-10T06:55:24;10.10;99.90
54168;DHT22;40072;50.958;3.592;2022-10-10T06:57:50;10.20;99.90
54168;DHT22;40072;50.958;3.592;2022-10-10T07:00:16;10.30;99.90
54168;DHT22;40072;50.958;3.592;2022-10-10T07:02:42;10.30;99.90
54168;DHT22;40072;50.958;3.592;2022-10-10T07:05:10;10.40;99.90
54168;DHT22;40072;50.958;3.592;2022-10-10T07:07:37;10.40;99.90
54168;DHT22;40072;50.958;3.592;2022-10-10T07:10:03;10.60;99.90
54168;DHT22;40072;50.958;3.592;2022-10-10T07:12:29;10.80;99.90
54168;DHT22;40072;50.958;3.592;2022-10-10T07:14:55;10.90;99.90
54168;DHT22;40072;50.958;3.592;2022-10-10T07:17:20;11.10;99.90
54168;DHT22;40072;50.958;3.592;2022-10-10T07:19:46;11.10;99.90
54168;DHT22;40072;50.958;3.592;2022-10-10T07:22:12;11.20;99.90
54168;DHT22;40072;50.958;3.592;2022-10-10T07:24:38;11.40;99.90
54168;DHT22;40072;50.958;3.592;2022-10-10T07:27:04;11.70;99.90
54168;DHT22;40072;50.958;3.592;2022-10-10T07:29:29;11.90;99.90
54168;DHT22;40072;50.958;3.592;2022-10-10T07:31:56;12.30;99.90
54168;DHT22;40072;50.958;3.592;2022-10-10T07:34:21;12.50;99.90
54168;DHT22;40072;50.958;3.592;2022-10-10T07:36:47;12.60;99.90
54168;DHT22;40072;50.958;3.592;2022-10-10T07:39:24;12.80;99.90
54168;DHT22;40072;50.958;3.592;2022-10-10T07:41:50;13.10;99.90
54168;DHT22;40072;50.958;3.592;2022-10-10T07:44:17;13.30;99.90
54168;DHT22;40072;50.958;3.592;2022-10-10T07:46:43;13.50;99.90
54168;DHT22;40072;50.958;3.592;2022-10-10T07:49:09;13.60;99.90
54168;DHT22;40072;50.958;3.592;2022-10-10T07:51:35;13.40;99.90
54168;DHT22;40072;50.958;3.592;2022-10-10T07:54:01;13.60;99.90
54168;DHT22;40072;50.958;3.592;2022-10-10T07:56:27;13.60;99.90
54168;DHT22;40072;50.958;3.592;2022-10-10T07:58:53;13.50;99.90
54168;DHT22;40072;50.958;3.592;2022-10-10T08:01:18;13.40;99.90
54168;DHT22;40072;50.958;3.592;2022-10-10T08:03:45;13.20;99.90
54168;DHT22;40072;50.958;3.592;2022-10-10T08:06:14;13.20;99.90
54168;DHT22;40072;50.958;3.592;2022-10-10T08:08:41;13.10;99.90
54168;DHT22;40072;50.958;3.592;2022-10-10T08:11:08;13.10;99.90
54168;DHT22;40072;50.958;3.592;2022-10-10T08:13:36;13.10;99.90
54168;DHT22;40072;50.958;3.592;2022-10-10T08:16:03;13.00;99.90
54168;DHT22;40072;50.958;3.592;2022-10-10T08:18:29;13.00;99.90
54168;DHT22;40072;50.958;3.592;2022-10-10T08:21:15;13.10;99.90
54168;DHT22;40072;50.958;3.592;2022-10-10T08:23:41;13.10;99.90
54168;DHT22;40072;50.958;3.592;2022-10-10T08:26:10;13.20;99.90
54168;DHT22;40072;50.958;3.592;2022-10-10T08:28:37;13.30;99.90
54168;DHT22;40072;50.958;3.592;2022-10-10T08:31:08;13.40;99.90
54168;DHT22;40072;50.958;3.592;2022-10-10T08:33:34;13.70;99.90
54168;DHT22;40072;50.958;3.592;2022-10-10T08:36:04;14.20;99.90
54168;DHT22;40072;50.958;3.592;2022-10-10T08:38:30;14.50;99.90
54168;DHT22;40072;50.958;3.592;2022-10-10T08:40:56;14.70;99.90
54168;DHT22;40072;50.958;3.592;2022-10-10T08:43:40;14.80;99.90
54168;DHT22;40072;50.958;3.592;2022-10-10T08:46:26;15.10;99.90
54168;DHT22;40072;50.958;3.592;2022-10-10T08:48:57;15.00;99.90
54168;DHT22;40072;50.958;3.592;2022-10-10T08:51:27;14.80;99.90
54168;DHT22;40072;50.958;3.592;2022-10-10T08:53:59;14.70;99.90
54168;DHT22;40072;50.958;3.592;2022-10-10T08:56:30;14.40;99.90
54168;DHT22;40072;50.958;3.592;2022-10-10T08:59:20;14.50;99.90
54168;DHT22;40072;50.958;3.592;2022-10-10T09:01:49;14.60;99.90
54168;DHT22;40072;50.958;3.592;2022-10-10T09:04:18;14.80;99.90
54168;DHT22;40072;50.958;3.592;2022-10-10T09:09:45;15.40;99.90
54168;DHT22;40072;50.958;3.592;2022-10-10T09:12:17;15.40;99.90
54168;DHT22;40072;50.958;3.592;2022-10-10T09:15:14;15.40;99.90
54168;DHT22;40072;50.958;3.592;2022-10-10T09:20:45;15.40;99.90
54168;DHT22;40072;50.958;3.592;2022-10-10T09:26:13;16.10;99.90
54168;DHT22;40072;50.958;3.592;2022-10-10T09:29:01;16.00;99.90
54168;DHT22;40072;50.958;3.592;2022-10-10T09:31:37;16.30;99.90
54168;DHT22;40072;50.958;3.592;2022-10-10T09:34:40;16.50;99.90
54168;DHT22;40072;50.958;3.592;2022-10-10T09:36:58;16.90;99.90
54168;DHT22;40072;50.958;3.592;2022-10-10T09:39:36;17.60;99.90
54168;DHT22;40072;50.958;3.592;2022-10-10T09:42:08;18.00;99.90
54168;DHT22;40072;50.958;3.592;2022-10-10T09:44:34;18.20;99.90
54168;DHT22;40072;50.958;3.592;2022-10-10T09:47:00;18.20;99.90
54168;DHT22;40072;50.958;3.592;2022-10-10T09:49:26;18.20;99.90
54168;DHT22;40072;50.958;3.592;2022-10-10T09:51:52;18.50;99.90
54168;DHT22;40072;50.958;3.592;2022-10-10T09:54:18;18.70;99.90
54168;DHT22;40072;50.958;3.592;2022-10-10T09:56:53;19.10;99.90
54168;DHT22;40072;50.958;3.592;2022-10-10T09:59:39;19.40;99.90
54168;DHT22;40072;50.958;3.592;2022-10-10T10:02:17;19.30;99.90
54168;DHT22;40072;50.958;3.592;2022-10-10T10:04:43;19.80;99.90
54168;DHT22;40072;50.958;3.592;2022-10-10T10:07:32;20.30;99.90
54168;DHT22;40072;50.958;3.592;2022-10-10T10:10:02;22.40;98.70
54168;DHT22;40072;50.958;3.592;2022-10-10T10:12:42;23.80;96.10
54168;DHT22;40072;50.958;3.592;2022-10-10T10:15:35;23.70;93.80
54168;DHT22;40072;50.958;3.592;2022-10-10T10:20:47;25.10;94.00
54168;DHT22;40072;50.958;3.592;2022-10-10T10:23:23;26.00;92.20
54168;DHT22;40072;50.958;3.592;2022-10-10T10:26:00;26.30;91.80
54168;DHT22;40072;50.958;3.592;2022-10-10T10:28:26;27.10;90.80
54168;DHT22;40072;50.958;3.592;2022-10-10T10:30:56;27.20;88.90
54168;DHT22;40072;50.958;3.592;2022-10-10T10:41:59;23.80;92.80
54168;DHT22;40072;50.958;3.592;2022-10-10T10:53:11;20.70;98.00
54168;DHT22;40072;50.958;3.592;2022-10-10T11:01:25;20.50;99.60
54168;DHT22;40072;50.958;3.592;2022-10-10T11:04:17;20.10;99.90
54168;DHT22;40072;50.958;3.592;2022-10-10T11:07:10;19.30;99.90
54168;DHT22;40072;50.958;3.592;2022-10-10T11:12:37;19.10;99.90
54168;DHT22;40072;50.958;3.592;2022-10-10T11:15:28;18.70;99.90
54168;DHT22;40072;50.958;3.592;2022-10-10T11:18:12;18.10;99.90
54168;DHT22;40072;50.958;3.592;2022-10-10T11:20:45;18.10;99.90
54168;DHT22;40072;50.958;3.592;2022-10-10T11:23:21;18.20;99.90
54168;DHT22;40072;50.958;3.592;2022-10-10T11:25:58;18.60;99.90
54168;DHT22;40072;50.958;3.592;2022-10-10T11:28:48;19.10;99.90
54168;DHT22;40072;50.958;3.592;2022-10-10T11:31:25;19.20;99.90
54168;DHT22;40072;50.958;3.592;2022-10-10T11:33:58;19.30;99.90
54168;DHT22;40072;50.958;3.592;2022-10-10T11:36:28;19.40;99.90
54168;DHT22;40072;50.958;3.592;2022-10-10T11:41:45;19.60;99.90
54168;DHT22;40072;50.958;3.592;2022-10-10T11:44:37;20.20;99.90
54168;DHT22;40072;50.958;3.592;2022-10-10T11:50:09;20.80;99.90
54168;DHT22;40072;50.958;3.592;2022-10-10T12:00:43;22.10;98.70
54168;DHT22;40072;50.958;3.592;2022-10-10T12:03:10;22.00;99.10
54168;DHT22;40072;50.958;3.592;2022-10-10T12:05:38;22.10;99.10
54168;DHT22;40072;50.958;3.592;2022-10-10T12:08:12;22.70;98.80
54168;DHT22;40072;50.958;3.592;2022-10-10T12:16:02;26.60;93.40
54168;DHT22;40072;50.958;3.592;2022-10-10T12:18:42;26.60;92.70
54168;DHT22;40072;50.958;3.592;2022-10-10T12:21:18;26.60;93.00
54168;DHT22;40072;50.958;3.592;2022-10-10T12:24:12;27.10;92.50
54168;DHT22;40072;50.958;3.592;2022-10-10T12:29:46;24.60;94.90
54168;DHT22;40072;50.958;3.592;2022-10-10T12:37:22;26.00;94.00
54168;DHT22;40072;50.958;3.592;2022-10-10T12:40:17;27.30;92.80
54168;DHT22;40072;50.958;3.592;2022-10-10T12:47:59;25.20;94.00
54168;DHT22;40072;50.958;3.592;2022-10-10T12:50:31;24.80;94.80
54168;DHT22;40072;50.958;3.592;2022-10-10T12:53:18;23.20;96.90
54168;DHT22;40072;50.958;3.592;2022-10-10T12:55:59;22.60;98.60
54168;DHT22;40072;50.958;3.592;2022-10-10T12:58:46;21.80;99.80
54168;DHT22;40072;50.958;3.592;2022-10-10T13:01:27;21.50;99.90
54168;DHT22;40072;50.958;3.592;2022-10-10T13:03:54;20.80;99.90
54168;DHT22;40072;50.958;3.592;2022-10-10T13:06:39;20.50;99.90
54168;DHT22;40072;50.958;3.592;2022-10-10T13:09:18;20.30;99.90
54168;DHT22;40072;50.958;3.592;2022-10-10T13:14:16;20.00;99.90
54168;DHT22;40072;50.958;3.592;2022-10-10T13:16:45;20.20;99.90
54168;DHT22;40072;50.958;3.592;2022-10-10T13:19:22;20.30;99.90
54168;DHT22;40072;50.958;3.592;2022-10-10T13:21:51;20.10;99.90
54168;DHT22;40072;50.958;3.592;2022-10-10T13:24:19;20.10;99.90
54168;DHT22;40072;50.958;3.592;2022-10-10T13:26:50;19.90;99.90
54168;DHT22;40072;50.958;3.592;2022-10-10T13:29:34;19.90;99.90
54168;DHT22;40072;50.958;3.592;2022-10-10T13:32:10;19.30;99.90
54168;DHT22;40072;50.958;3.592;2022-10-10T13:34:40;19.10;99.90
54168;DHT22;40072;50.958;3.592;2022-10-10T13:37:08;19.00;99.90
54168;DHT22;40072;50.958;3.592;2022-10-10T13:39:37;18.60;99.90
54168;DHT22;40072;50.958;3.592;2022-10-10T13:42:03;18.50;99.90
54168;DHT22;40072;50.958;3.592;2022-10-10T13:44:47;18.60;99.90
54168;DHT22;40072;50.958;3.592;2022-10-10T13:47:49;18.50;99.90
54168;DHT22;40072;50.958;3.592;2022-10-10T13:50:20;18.10;99.90
54168;DHT22;40072;50.958;3.592;2022-10-10T13:52:46;18.00;99.90
54168;DHT22;40072;50.958;3.592;2022-10-10T13:55:26;17.90;99.90
54168;DHT22;40072;50.958;3.592;2022-10-10T13:57:53;17.60;99.90
54168;DHT22;40072;50.958;3.592;2022-10-10T14:00:21;17.50;99.90
54168;DHT22;40072;50.958;3.592;2022-10-10T14:02:47;17.30;99.90
54168;DHT22;40072;50.958;3.592;2022-10-10T14:05:36;17.20;99.90
54168;DHT22;40072;50.958;3.592;2022-10-10T14:08:01;16.90;99.90
54168;DHT22;40072;50.958;3.592;2022-10-10T14:10:29;16.60;99.90
54168;DHT22;40072;50.958;3.592;2022-10-10T14:13:00;16.30;99.90
54168;DHT22;40072;50.958;3.592;2022-10-10T14:18:18;16.10;99.90
54168;DHT22;40072;50.958;3.592;2022-10-10T14:20:45;15.90;99.90
54168;DHT22;40072;50.958;3.592;2022-10-10T14:23:11;15.70;99.90
54168;DHT22;40072;50.958;3.592;2022-10-10T14:25:42;15.40;99.90
54168;DHT22;40072;50.958;3.592;2022-10-10T14:28:26;15.20;99.90
54168;DHT22;40072;50.958;3.592;2022-10-10T14:30:52;15.10;99.90
54168;DHT22;40072;50.958;3.592;2022-10-10T14:33:19;15.00;99.90
54168;DHT22;40072;50.958;3.592;2022-10-10T14:35:45;15.00;99.90
54168;DHT22;40072;50.958;3.592;2022-10-10T14:38:12;15.00;99.90
54168;DHT22;40072;50.958;3.592;2022-10-10T14:40:44;15.20;99.90
54168;DHT22;40072;50.958;3.592;2022-10-10T14:43:09;15.30;99.90
54168;DHT22;40072;50.958;3.592;2022-10-10T14:45:36;15.20;99.90
54168;DHT22;40072;50.958;3.592;2022-10-10T14:48:02;15.10;99.90
54168;DHT22;40072;50.958;3.592;2022-10-10T14:50:34;15.10;99.90
54168;DHT22;40072;50.958;3.592;2022-10-10T14:52:59;15.00;99.90
54168;DHT22;40072;50.958;3.592;2022-10-10T14:55:25;15.00;99.90
54168;DHT22;40072;50.958;3.592;2022-10-10T14:57:51;14.80;99.90
54168;DHT22;40072;50.958;3.592;2022-10-10T15:00:19;14.60;99.90
54168;DHT22;40072;50.958;3.592;2022-10-10T15:02:45;14.50;99.90
54168;DHT22;40072;50.958;3.592;2022-10-10T15:05:12;14.60;99.90
54168;DHT22;40072;50.958;3.592;2022-10-10T15:07:37;14.50;99.90
54168;DHT22;40072;50.958;3.592;2022-10-10T15:10:04;14.70;99.90
54168;DHT22;40072;50.958;3.592;2022-10-10T15:12:30;14.60;99.90
54168;DHT22;40072;50.958;3.592;2022-10-10T15:14:56;14.60;99.90
54168;DHT22;40072;50.958;3.592;2022-10-10T15:17:21;14.70;99.90
54168;DHT22;40072;50.958;3.592;2022-10-10T15:19:48;14.90;99.90
54168;DHT22;40072;50.958;3.592;2022-10-10T15:22:14;14.90;99.90
54168;DHT22;40072;50.958;3.592;2022-10-10T15:24:39;14.90;99.90
54168;DHT22;40072;50.958;3.592;2022-10-10T15:27:05;14.90;99.90
54168;DHT22;40072;50.958;3.592;2022-10-10T15:29:31;15.00;99.90
54168;DHT22;40072;50.958;3.592;2022-10-10T15:31:56;15.10;99.90
54168;DHT22;40072;50.958;3.592;2022-10-10T15:34:23;14.90;99.90
54168;DHT22;40072;50.958;3.592;2022-10-10T15:36:48;15.00;99.90
54168;DHT22;40072;50.958;3.592;2022-10-10T15:39:14;15.00;99.90
54168;DHT22;40072;50.958;3.592;2022-10-10T15:41:40;14.90;99.90
54168;DHT22;40072;50.958;3.592;2022-10-10T15:44:12;14.90;99.90
54168;DHT22;40072;50.958;3.592;2022-10-10T15:46:38;15.00;99.90
54168;DHT22;40072;50.958;3.592;2022-10-10T15:49:04;15.10;99.90
54168;DHT22;40072;50.958;3.592;2022-10-10T15:51:30;15.20;99.90
54168;DHT22;40072;50.958;3.592;2022-10-10T15:53:59;15.40;99.90
54168;DHT22;40072;50.958;3.592;2022-10-10T15:56:25;15.40;99.90
54168;DHT22;40072;50.958;3.592;2022-10-10T15:58:56;15.30;99.90
54168;DHT22;40072;50.958;3.592;2022-10-10T16:01:22;15.30;99.90
54168;DHT22;40072;50.958;3.592;2022-10-10T16:03:48;15.30;99.90
54168;DHT22;40072;50.958;3.592;2022-10-10T16:06:16;15.40;99.90
54168;DHT22;40072;50.958;3.592;2022-10-10T16:08:42;15.50;99.90
54168;DHT22;40072;50.958;3.592;2022-10-10T16:11:10;15.40;99.90
54168;DHT22;40072;50.958;3.592;2022-10-10T16:13:37;15.40;99.90
54168;DHT22;40072;50.958;3.592;2022-10-10T16:16:06;15.40;99.90
54168;DHT22;40072;50.958;3.592;2022-10-10T16:18:34;15.50;99.90
54168;DHT22;40072;50.958;3.592;2022-10-10T16:21:03;15.60;99.90
54168;DHT22;40072;50.958;3.592;2022-10-10T16:23:29;15.70;99.90
54168;DHT22;40072;50.958;3.592;2022-10-10T16:26:07;16.00;99.90
54168;DHT22;40072;50.958;3.592;2022-10-10T16:28:33;15.90;99.90
54168;DHT22;40072;50.958;3.592;2022-10-10T16:31:04;15.70;99.90
54168;DHT22;40072;50.958;3.592;2022-10-10T16:33:31;15.60;99.90
54168;DHT22;40072;50.958;3.592;2022-10-10T16:35:58;15.50;99.90
54168;DHT22;40072;50.958;3.592;2022-10-10T16:38:24;15.30;99.90
54168;DHT22;40072;50.958;3.592;2022-10-10T16:40:49;15.40;99.90
54168;DHT22;40072;50.958;3.592;2022-10-10T16:43:15;15.40;99.90
54168;DHT22;40072;50.958;3.592;2022-10-10T16:45:45;15.20;99.90
54168;DHT22;40072;50.958;3.592;2022-10-10T16:48:11;15.10;99.90
54168;DHT22;40072;50.958;3.592;2022-10-10T16:50:39;14.80;99.90
54168;DHT22;40072;50.958;3.592;2022-10-10T16:53:06;14.70;99.90
54168;DHT22;40072;50.958;3.592;2022-10-10T16:55:31;14.50;99.90
54168;DHT22;40072;50.958;3.592;2022-10-10T16:57:57;14.40;99.90
54168;DHT22;40072;50.958;3.592;2022-10-10T17:00:23;14.10;99.90
54168;DHT22;40072;50.958;3.592;2022-10-10T17:02:49;14.10;99.90
54168;DHT22;40072;50.958;3.592;2022-10-10T17:05:15;14.00;99.90
54168;DHT22;40072;50.958;3.592;2022-10-10T17:07:40;13.90;99.90
54168;DHT22;40072;50.958;3.592;2022-10-10T17:10:06;13.80;99.90
54168;DHT22;40072;50.958;3.592;2022-10-10T17:12:32;13.70;99.90
54168;DHT22;40072;50.958;3.592;2022-10-10T17:14:58;13.70;99.90
54168;DHT22;40072;50.958;3.592;2022-10-10T17:17:24;13.70;99.90
54168;DHT22;40072;50.958;3.592;2022-10-10T17:19:49;13.50;99.90
54168;DHT22;40072;50.958;3.592;2022-10-10T17:22:15;13.40;99.90
54168;DHT22;40072;50.958;3.592;2022-10-10T17:24:41;13.30;99.90
54168;DHT22;40072;50.958;3.592;2022-10-10T17:27:06;13.00;99.90
54168;DHT22;40072;50.958;3.592;2022-10-10T17:29:32;12.90;99.90
54168;DHT22;40072;50.958;3.592;2022-10-10T17:31:58;12.70;99.90